sensor_id;sensor_type;location;lat;lon;timestamp;pressure;altitude;pressure_sealevel;temperature;humidity
11114;BME280;5610;52.154;9.198;2023-01-08T00:01:40;99717.66;;;10.40;100.00
11114;BME280;5610;52.154;9.198;2023-01-08T00:04:25;99725.78;;;10.39;100.00
11114;BME280;5610;52.154;9.198;2023-01-08T00:07:10;99720.25;;;10.53;100.00
11114;BME280;5610;52.154;9.198;2023-01-08T00:09:56;99707.19;;;10.61;100.00
11114;BME280;5610;52.154;9.198;2023-01-08T00:12:42;99698.31;;;10.50;100.00
11114;BME280;5610;52.154;9.198;2023-01-08T00:15:28;99706.09;;;10.53;100.00
11114;BME280;5610;52.154;9.198;2023-01-08T00:18:14;99705.75;;;10.57;100.00
11114;BME280;5610;52.154;9.198;2023-01-08T00:20:59;99698.94;;;10.53;100.00
11114;BME280;5610;52.154;9.198;2023-01-08T00:23:45;99701.50;;;10.55;100.00
11114;BME280;5610;52.154;9.198;2023-01-08T00:26:30;99699.41;;;10.47;100.00
11114;BME280;5610;52.154;9.198;2023-01-08T00:29:17;99692.13;;;10.38;100.00
11114;BME280;5610;52.154;9.198;2023-01-08T00:32:02;99698.13;;;10.29;100.00
11114;BME280;5610;52.154;9.198;2023-01-08T00:34:48;99707.47;;;10.34;100.00
11114;BME280;5610;52.154;9.198;2023-01-08T00:37:33;99712.72;;;10.47;100.00
11114;BME280;5610;52.154;9.198;2023-01-08T00:40:18;99719.91;;;10.58;100.00
11114;BME280;5610;52.154;9.198;2023-01-08T00:43:04;99710.00;;;10.71;100.00
11114;BME280;5610;52.154;9.198;2023-01-08T00:45:51;99709.91;;;10.72;100.00
11114;BME280;5610;52.154;9.198;2023-01-08T00:48:36;99696.19;;;10.66;100.00
11114;BME280;5610;52.154;9.198;2023-01-08T00:51:22;99703.44;;;10.64;100.00
11114;BME280;5610;52.154;9.198;2023-01-08T00:54:09;99696.53;;;10.61;100.00
11114;BME280;5610;52.154;9.198;2023-01-08T00:56:54;99705.00;;;10.55;100.00
11114;BME280;5610;52.154;9.198;2023-01-08T00:59:40;99693.00;;;10.50;100.00
11114;BME280;5610;52.154;9.198;2023-01-08T01:02:27;99685.28;;;10.58;100.00
11114;BME280;5610;52.154;9.198;2023-01-08T01:05:13;99678.88;;;10.60;100.00
11114;BME280;5610;52.154;9.198;2023-01-08T01:08:00;99678.50;;;10.54;100.00
11114;BME280;5610;52.154;9.198;2023-01-08T01:10:45;99673.28;;;10.52;100.00
11114;BME280;5610;52.154;9.198;2023-01-08T01:13:30;99668.19;;;10.49;100.00
11114;BME280;5610;52.154;9.198;2023-01-08T01:16:16;99662.88;;;10.60;100.00
11114;BME280;5610;52.154;9.198;2023-01-08T01:19:03;99663.13;;;10.57;100.00
11114;BME280;5610;52.154;9.198;2023-01-08T01:21:49;99666.28;;;10.51;100.00
11114;BME280;5610;52.154;9.198;2023-01-08T01:24:34;99677.19;;;10.59;100.00
11114;BME280;5610;52.154;9.198;2023-01-08T01:27:19;99670.53;;;10.65;100.00
11114;BME280;5610;52.154;9.198;2023-01-08T01:30:07;99675.72;;;10.66;100.00
11114;BME280;5610;52.154;9.198;2023-01-08T01:32:52;99676.34;;;10.70;100.00
11114;BME280;5610;52.154;9.198;2023-01-08T01:35:39;99668.00;;;10.75;100.00
11114;BME280;5610;52.154;9.198;2023-01-08T01:38:24;99670.19;;;10.81;100.00
11114;BME280;5610;52.154;9.198;2023-01-08T01:41:17;99665.91;;;10.78;100.00
11114;BME280;5610;52.154;9.198;2023-01-08T01:44:34;99661.91;;;10.61;100.00
11114;BME280;5610;52.154;9.198;2023-01-08T01:47:24;99643.75;;;10.78;100.00
11114;BME280;5610;52.154;9.198;2023-01-08T01:50:14;99649.84;;;10.80;100.00
11114;BME280;5610;52.154;9.198;2023-01-08T01:53:06;99645.09;;;10.61;100.00
11114;BME280;5610;52.154;9.198;2023-01-08T01:55:54;99645.97;;;10.72;100.00
11114;BME280;5610;52.154;9.198;2023-01-08T01:58:41;99640.38;;;10.76;100.00
11114;BME280;5610;52.154;9.198;2023-01-08T02:01:27;99651.41;;;10.82;100.00
11114;BME280;5610;52.154;9.198;2023-01-08T02:04:14;99644.75;;;10.88;100.00
11114;BME280;5610;52.154;9.198;2023-01-08T02:07:05;99643.78;;;10.89;100.00
11114;BME280;5610;52.154;9.198;2023-01-08T02:10:02;99654.19;;;10.92;100.00
11114;BME280;5610;52.154;9.198;2023-01-08T02:12:53;99650.44;;;10.94;100.00
11114;BME280;5610;52.154;9.198;2023-01-08T02:15:47;99660.63;;;10.89;100.00
11114;BME280;5610;52.154;9.198;2023-01-08T02:18:38;99659.50;;;10.92;100.00
11114;BME280;5610;52.154;9.198;2023-01-08T02:21:32;99660.25;;;10.94;100.00
11114;BME280;5610;52.154;9.198;2023-01-08T02:24:29;99660.00;;;10.75;100.00
11114;BME280;5610;52.154;9.198;2023-01-08T02:27:20;99652.38;;;10.81;100.00
11114;BME280;5610;52.154;9.198;2023-01-08T02:30:09;99654.28;;;10.68;100.00
11114;BME280;5610;52.154;9.198;2023-01-08T02:32:54;99639.03;;;10.59;100.00
11114;BME280;5610;52.154;9.198;2023-01-08T02:35:41;99640.00;;;10.69;100.00
11114;BME280;5610;52.154;9.198;2023-01-08T02:38:28;99645.47;;;10.67;100.00
11114;BME280;5610;52.154;9.198;2023-01-08T02:41:16;99651.38;;;10.71;100.00
11114;BME280;5610;52.154;9.198;2023-01-08T02:44:04;99637.00;;;10.73;100.00
11114;BME280;5610;52.154;9.198;2023-01-08T02:46:53;99642.81;;;10.79;100.00
11114;BME280;5610;52.154;9.198;2023-01-08T02:49:41;99646.69;;;10.75;100.00
11114;BME280;5610;52.154;9.198;2023-01-08T02:52:32;99644.00;;;10.63;100.00
11114;BME280;5610;52.154;9.198;2023-01-08T02:55:21;99636.63;;;10.67;100.00
11114;BME280;5610;52.154;9.198;2023-01-08T02:58:08;99646.06;;;10.60;100.00
11114;BME280;5610;52.154;9.198;2023-01-08T03:00:55;99643.78;;;10.66;100.00
11114;BME280;5610;52.154;9.198;2023-01-08T03:03:43;99636.03;;;10.75;100.00
11114;BME280;5610;52.154;9.198;2023-01-08T03:06:30;99642.31;;;10.73;100.00
11114;BME280;5610;52.154;9.198;2023-01-08T03:09:16;99635.41;;;10.71;100.00
11114;BME280;5610;52.154;9.198;2023-01-08T03:12:06;99636.00;;;10.63;100.00
11114;BME280;5610;52.154;9.198;2023-01-08T03:14:55;99635.53;;;10.58;100.00
11114;BME280;5610;52.154;9.198;2023-01-08T03:17:47;99632.63;;;10.50;100.00
11114;BME280;5610;52.154;9.198;2023-01-08T03:20:34;99641.44;;;10.62;100.00
11114;BME280;5610;52.154;9.198;2023-01-08T03:23:21;99624.88;;;10.69;100.00
11114;BME280;5610;52.154;9.198;2023-01-08T03:26:08;99639.19;;;10.80;100.00
11114;BME280;5610;52.154;9.198;2023-01-08T03:28:55;99630.06;;;10.71;100.00
11114;BME280;5610;52.154;9.198;2023-01-08T03:31:41;99624.25;;;10.77;100.00
11114;BME280;5610;52.154;9.198;2023-01-08T03:34:30;99621.25;;;10.82;100.00
11114;BME280;5610;52.154;9.198;2023-01-08T03:37:19;99625.94;;;10.78;100.00
11114;BME280;5610;52.154;9.198;2023-01-08T03:40:09;99614.09;;;10.82;100.00
11114;BME280;5610;52.154;9.198;2023-01-08T03:42:56;99607.94;;;10.82;100.00
11114;BME280;5610;52.154;9.198;2023-01-08T03:45:45;99608.66;;;10.84;100.00
11114;BME280;5610;52.154;9.198;2023-01-08T03:48:33;99594.34;;;10.85;100.00
11114;BME280;5610;52.154;9.198;2023-01-08T03:51:21;99589.00;;;10.85;100.00
11114;BME280;5610;52.154;9.198;2023-01-08T03:54:08;99590.75;;;10.86;100.00
11114;BME280;5610;52.154;9.198;2023-01-08T03:56:55;99585.03;;;10.79;100.00
11114;BME280;5610;52.154;9.198;2023-01-08T03:59:40;99582.00;;;10.84;100.00
11114;BME280;5610;52.154;9.198;2023-01-08T04:02:25;99574.25;;;10.81;100.00
11114;BME280;5610;52.154;9.198;2023-01-08T04:05:11;99578.25;;;10.75;100.00
11114;BME280;5610;52.154;9.198;2023-01-08T04:07:57;99573.63;;;10.77;100.00
11114;BME280;5610;52.154;9.198;2023-01-08T04:10:43;99573.53;;;10.79;100.00
11114;BME280;5610;52.154;9.198;2023-01-08T04:13:28;99565.88;;;10.63;100.00
11114;BME280;5610;52.154;9.198;2023-01-08T04:16:13;99560.47;;;10.64;100.00
11114;BME280;5610;52.154;9.198;2023-01-08T04:18:59;99555.72;;;10.68;100.00
11114;BME280;5610;52.154;9.198;2023-01-08T04:21:44;99552.44;;;10.76;100.00
11114;BME280;5610;52.154;9.198;2023-01-08T04:24:31;99557.53;;;10.67;100.00
11114;BME280;5610;52.154;9.198;2023-01-08T04:27:16;99553.19;;;10.66;100.00
11114;BME280;5610;52.154;9.198;2023-01-08T04:30:02;99547.13;;;10.76;100.00
11114;BME280;5610;52.154;9.198;2023-01-08T04:32:48;99549.66;;;10.77;100.00
11114;BME280;5610;52.154;9.198;2023-01-08T04:35:33;99543.38;;;10.67;100.00
11114;BME280;5610;52.154;9.198;2023-01-08T04:38:19;99546.66;;;10.59;100.00
11114;BME280;5610;52.154;9.198;2023-01-08T04:41:05;99545.91;;;10.46;100.00
11114;BME280;5610;52.154;9.198;2023-01-08T04:43:51;99547.00;;;10.55;100.00
11114;BME280;5610;52.154;9.198;2023-01-08T04:46:36;99537.22;;;10.66;100.00
11114;BME280;5610;52.154;9.198;2023-01-08T04:49:22;99539.03;;;10.66;100.00
11114;BME280;5610;52.154;9.198;2023-01-08T04:52:07;99541.06;;;10.62;100.00
11114;BME280;5610;52.154;9.198;2023-01-08T04:54:53;99544.72;;;10.61;100.00
11114;BME280;5610;52.154;9.198;2023-01-08T04:57:39;99540.94;;;10.64;100.00
11114;BME280;5610;52.154;9.198;2023-01-08T05:00:25;99537.94;;;10.57;100.00
11114;BME280;5610;52.154;9.198;2023-01-08T05:03:10;99535.28;;;10.57;100.00
11114;BME280;5610;52.154;9.198;2023-01-08T05:05:59;99530.69;;;10.59;100.00
11114;BME280;5610;52.154;9.198;2023-01-08T05:08:44;99535.53;;;10.65;100.00
11114;BME280;5610;52.154;9.198;2023-01-08T05:11:30;99529.44;;;10.63;100.00
11114;BME280;5610;52.154;9.198;2023-01-08T05:14:16;99524.63;;;10.57;100.00
11114;BME280;5610;52.154;9.198;2023-01-08T05:17:02;99526.94;;;10.51;100.00
11114;BME280;5610;52.154;9.198;2023-01-08T05:19:47;99524.50;;;10.59;100.00
11114;BME280;5610;52.154;9.198;2023-01-08T05:22:32;99514.06;;;10.56;100.00
11114;BME280;5610;52.154;9.198;2023-01-08T05:25:18;99513.84;;;10.48;100.00
11114;BME280;5610;52.154;9.198;2023-01-08T05:28:03;99514.22;;;10.43;100.00
11114;BME280;5610;52.154;9.198;2023-01-08T05:30:50;99509.59;;;10.45;100.00
11114;BME280;5610;52.154;9.198;2023-01-08T05:33:35;99511.56;;;10.43;100.00
11114;BME280;5610;52.154;9.198;2023-01-08T05:36:20;99506.72;;;10.37;100.00
11114;BME280;5610;52.154;9.198;2023-01-08T05:39:06;99503.56;;;10.43;100.00
11114;BME280;5610;52.154;9.198;2023-01-08T05:41:51;99501.50;;;10.47;100.00
11114;BME280;5610;52.154;9.198;2023-01-08T05:44:36;99500.78;;;10.44;100.00
11114;BME280;5610;52.154;9.198;2023-01-08T05:47:23;99500.63;;;10.35;100.00
11114;BME280;5610;52.154;9.198;2023-01-08T05:50:09;99510.59;;;10.44;100.00
11114;BME280;5610;52.154;9.198;2023-01-08T05:52:54;99504.06;;;10.37;100.00
11114;BME280;5610;52.154;9.198;2023-01-08T05:55:39;99502.94;;;10.39;100.00
11114;BME280;5610;52.154;9.198;2023-01-08T05:58:25;99497.97;;;10.35;100.00
11114;BME280;5610;52.154;9.198;2023-01-08T06:01:12;99505.13;;;10.34;100.00
11114;BME280;5610;52.154;9.198;2023-01-08T06:04:00;99503.06;;;10.27;100.00
11114;BME280;5610;52.154;9.198;2023-01-08T06:06:45;99509.47;;;10.35;100.00
11114;BME280;5610;52.154;9.198;2023-01-08T06:09:30;99498.22;;;10.32;100.00
11114;BME280;5610;52.154;9.198;2023-01-08T06:12:16;99499.19;;;10.31;100.00
11114;BME280;5610;52.154;9.198;2023-01-08T06:15:02;99501.63;;;10.23;100.00
11114;BME280;5610;52.154;9.198;2023-01-08T06:17:47;99504.66;;;10.29;100.00
11114;BME280;5610;52.154;9.198;2023-01-08T06:20:36;99497.72;;;10.27;100.00
11114;BME280;5610;52.154;9.198;2023-01-08T06:23:22;99500.19;;;10.30;100.00
11114;BME280;5610;52.154;9.198;2023-01-08T06:26:07;99491.44;;;10.28;100.00
11114;BME280;5610;52.154;9.198;2023-01-08T06:28:52;99496.66;;;10.29;100.00
11114;BME280;5610;52.154;9.198;2023-01-08T06:31:38;99498.09;;;10.33;100.00
11114;BME280;5610;52.154;9.198;2023-01-08T06:34:23;99491.94;;;10.33;100.00
11114;BME280;5610;52.154;9.198;2023-01-08T06:37:10;99492.66;;;10.24;100.00
11114;BME280;5610;52.154;9.198;2023-01-08T06:39:55;99503.06;;;10.27;100.00
11114;BME280;5610;52.154;9.198;2023-01-08T06:42:41;99505.25;;;10.33;100.00
11114;BME280;5610;52.154;9.198;2023-01-08T06:45:27;99498.22;;;10.32;100.00
11114;BME280;5610;52.154;9.198;2023-01-08T06:48:12;99505.97;;;10.24;100.00
11114;BME280;5610;52.154;9.198;2023-01-08T06:50:58;99503.50;;;10.21;100.00
11114;BME280;5610;52.154;9.198;2023-01-08T06:53:47;99509.69;;;10.10;100.00
11114;BME280;5610;52.154;9.198;2023-01-08T06:56:32;99511.13;;;10.14;100.00
11114;BME280;5610;52.154;9.198;2023-01-08T06:59:18;99520.91;;;10.13;100.00
11114;BME280;5610;52.154;9.198;2023-01-08T07:02:03;99515.50;;;10.15;100.00
11114;BME280;5610;52.154;9.198;2023-01-08T07:04:49;99516.09;;;10.18;100.00
11114;BME280;5610;52.154;9.198;2023-01-08T07:07:34;99519.09;;;10.03;100.00
11114;BME280;5610;52.154;9.198;2023-01-08T07:10:21;99520.78;;;10.04;100.00
11114;BME280;5610;52.154;9.198;2023-01-08T07:13:06;99520.06;;;10.02;100.00
11114;BME280;5610;52.154;9.198;2023-01-08T07:15:52;99525.50;;;10.00;100.00
11114;BME280;5610;52.154;9.198;2023-01-08T07:18:37;99529.50;;;10.06;100.00
11114;BME280;5610;52.154;9.198;2023-01-08T07:21:23;99533.63;;;10.10;100.00
11114;BME280;5610;52.154;9.198;2023-01-08T07:24:09;99526.38;;;10.12;100.00
11114;BME280;5610;52.154;9.198;2023-01-08T07:26:56;99534.28;;;10.25;100.00
11114;BME280;5610;52.154;9.198;2023-01-08T07:29:41;99527.38;;;10.22;100.00
11114;BME280;5610;52.154;9.198;2023-01-08T07:32:26;99527.22;;;10.12;100.00
11114;BME280;5610;52.154;9.198;2023-01-08T07:35:11;99512.34;;;10.10;100.00
11114;BME280;5610;52.154;9.198;2023-01-08T07:37:57;99505.41;;;10.07;100.00
11114;BME280;5610;52.154;9.198;2023-01-08T07:40:42;99511.34;;;10.00;100.00
11114;BME280;5610;52.154;9.198;2023-01-08T07:43:29;99511.88;;;10.16;100.00
11114;BME280;5610;52.154;9.198;2023-01-08T07:46:14;99510.16;;;10.04;100.00
11114;BME280;5610;52.154;9.198;2023-01-08T07:49:00;99510.78;;;10.18;100.00
11114;BME280;5610;52.154;9.198;2023-01-08T07:51:47;99508.94;;;10.19;100.00
11114;BME280;5610;52.154;9.198;2023-01-08T07:54:33;99502.47;;;10.23;100.00
11114;BME280;5610;52.154;9.198;2023-01-08T07:57:18;99507.66;;;10.25;100.00
11114;BME280;5610;52.154;9.198;2023-01-08T08:00:06;99518.06;;;10.28;100.00
11114;BME280;5610;52.154;9.198;2023-01-08T08:02:52;99511.75;;;10.29;100.00
11114;BME280;5610;52.154;9.198;2023-01-08T08:05:37;99515.19;;;10.31;100.00
11114;BME280;5610;52.154;9.198;2023-01-08T08:08:22;99515.31;;;10.29;100.00
11114;BME280;5610;52.154;9.198;2023-01-08T08:11:08;99522.19;;;10.32;100.00
11114;BME280;5610;52.154;9.198;2023-01-08T08:13:53;99509.84;;;10.31;100.00
11114;BME280;5610;52.154;9.198;2023-01-08T08:16:40;99510.69;;;10.31;100.00
11114;BME280;5610;52.154;9.198;2023-01-08T08:19:25;99502.72;;;10.31;100.00
11114;BME280;5610;52.154;9.198;2023-01-08T08:22:11;99512.25;;;10.34;100.00
11114;BME280;5610;52.154;9.198;2023-01-08T08:24:57;99500.03;;;10.31;100.00
11114;BME280;5610;52.154;9.198;2023-01-08T08:27:42;99512.03;;;10.37;100.00
11114;BME280;5610;52.154;9.198;2023-01-08T08:30:29;99509.22;;;10.50;100.00
11114;BME280;5610;52.154;9.198;2023-01-08T08:33:16;99508.53;;;10.36;100.00
11114;BME280;5610;52.154;9.198;2023-01-08T08:36:02;99510.81;;;10.41;100.00
11114;BME280;5610;52.154;9.198;2023-01-08T08:38:47;99505.00;;;10.36;100.00
11114;BME280;5610;52.154;9.198;2023-01-08T08:41:32;99494.00;;;10.29;100.00
11114;BME280;5610;52.154;9.198;2023-01-08T08:44:18;99489.75;;;10.27;100.00
11114;BME280;5610;52.154;9.198;2023-01-08T08:47:05;99484.66;;;10.35;100.00
11114;BME280;5610;52.154;9.198;2023-01-08T08:49:52;99481.28;;;10.33;100.00
11114;BME280;5610;52.154;9.198;2023-01-08T08:52:37;99478.13;;;10.28;100.00
11114;BME280;5610;52.154;9.198;2023-01-08T08:55:22;99472.56;;;10.31;100.00
11114;BME280;5610;52.154;9.198;2023-01-08T08:58:09;99482.25;;;10.43;100.00
11114;BME280;5610;52.154;9.198;2023-01-08T09:01:00;99473.78;;;10.38;100.00
11114;BME280;5610;52.154;9.198;2023-01-08T09:03:46;99478.13;;;10.61;100.00
11114;BME280;5610;52.154;9.198;2023-01-08T09:06:34;99487.78;;;10.62;100.00
11114;BME280;5610;52.154;9.198;2023-01-08T09:09:19;99496.63;;;10.63;100.00
11114;BME280;5610;52.154;9.198;2023-01-08T09:12:05;99486.81;;;10.63;100.00
11114;BME280;5610;52.154;9.198;2023-01-08T09:14:50;99479.69;;;10.64;100.00
11114;BME280;5610;52.154;9.198;2023-01-08T09:17:37;99481.66;;;10.51;100.00
11114;BME280;5610;52.154;9.198;2023-01-08T09:20:24;99481.66;;;10.51;100.00
11114;BME280;5610;52.154;9.198;2023-01-08T09:23:11;99482.38;;;10.53;100.00
11114;BME280;5610;52.154;9.198;2023-01-08T09:25:58;99487.09;;;10.60;100.00
11114;BME280;5610;52.154;9.198;2023-01-08T09:28:43;99474.25;;;10.65;100.00
11114;BME280;5610;52.154;9.198;2023-01-08T09:31:29;99465.50;;;10.75;100.00
11114;BME280;5610;52.154;9.198;2023-01-08T09:34:15;99467.47;;;10.72;100.00
11114;BME280;5610;52.154;9.198;2023-01-08T09:37:00;99469.53;;;10.58;100.00
11114;BME280;5610;52.154;9.198;2023-01-08T09:39:47;99463.69;;;10.75;100.00
11114;BME280;5610;52.154;9.198;2023-01-08T09:42:32;99462.00;;;10.74;100.00
11114;BME280;5610;52.154;9.198;2023-01-08T09:45:24;99465.38;;;10.76;100.00
11114;BME280;5610;52.154;9.198;2023-01-08T09:48:13;99476.53;;;10.70;100.00
11114;BME280;5610;52.154;9.198;2023-01-08T09:51:01;99468.31;;;10.73;100.00
11114;BME280;5610;52.154;9.198;2023-01-08T09:53:52;99482.72;;;10.59;100.00
11114;BME280;5610;52.154;9.198;2023-01-08T09:56:40;99482.94;;;10.67;100.00
11114;BME280;5610;52.154;9.198;2023-01-08T09:59:26;99483.66;;;10.81;100.00
11114;BME280;5610;52.154;9.198;2023-01-08T10:02:14;99474.34;;;10.75;100.00
11114;BME280;5610;52.154;9.198;2023-01-08T10:05:00;99472.53;;;10.76;100.00
11114;BME280;5610;52.154;9.198;2023-01-08T10:07:46;99481.94;;;10.91;100.00
11114;BME280;5610;52.154;9.198;2023-01-08T10:10:32;99469.09;;;10.96;100.00
11114;BME280;5610;52.154;9.198;2023-01-08T10:13:19;99458.28;;;11.09;100.00
11114;BME280;5610;52.154;9.198;2023-01-08T10:16:07;99461.78;;;11.09;100.00
11114;BME280;5610;52.154;9.198;2023-01-08T10:18:53;99449.13;;;11.22;100.00
11114;BME280;5610;52.154;9.198;2023-01-08T10:21:39;99455.50;;;11.31;100.00
11114;BME280;5610;52.154;9.198;2023-01-08T10:24:32;99457.41;;;11.40;100.00
11114;BME280;5610;52.154;9.198;2023-01-08T10:27:19;99443.31;;;11.49;100.00
11114;BME280;5610;52.154;9.198;2023-01-08T10:30:13;99444.88;;;11.52;100.00
11114;BME280;5610;52.154;9.198;2023-01-08T10:33:02;99451.03;;;11.73;100.00
11114;BME280;5610;52.154;9.198;2023-01-08T10:35:56;99455.28;;;11.97;100.00
11114;BME280;5610;52.154;9.198;2023-01-08T10:38:51;99450.94;;;11.96;100.00
11114;BME280;5610;52.154;9.198;2023-01-08T10:41:39;99459.38;;;12.01;100.00
11114;BME280;5610;52.154;9.198;2023-01-08T10:44:25;99444.88;;;12.55;100.00
11114;BME280;5610;52.154;9.198;2023-01-08T10:47:15;99454.03;;;12.72;100.00
11114;BME280;5610;52.154;9.198;2023-01-08T10:50:03;99444.50;;;13.85;100.00
11114;BME280;5610;52.154;9.198;2023-01-08T10:52:54;99441.63;;;15.34;100.00
11114;BME280;5610;52.154;9.198;2023-01-08T10:55:40;99436.63;;;16.35;99.07
11114;BME280;5610;52.154;9.198;2023-01-08T10:58:26;99431.53;;;17.00;90.30
11114;BME280;5610;52.154;9.198;2023-01-08T11:01:17;99433.75;;;17.13;86.30
11114;BME280;5610;52.154;9.198;2023-01-08T11:04:05;99435.34;;;16.73;85.55
11114;BME280;5610;52.154;9.198;2023-01-08T11:06:50;99429.75;;;16.32;85.92
11114;BME280;5610;52.154;9.198;2023-01-08T11:09:40;99435.50;;;15.24;89.40
11114;BME280;5610;52.154;9.198;2023-01-08T11:12:35;99416.41;;;15.45;93.15
11114;BME280;5610;52.154;9.198;2023-01-08T11:15:29;99406.34;;;16.59;83.04
11114;BME280;5610;52.154;9.198;2023-01-08T11:18:18;99400.91;;;19.39;70.73
11114;BME280;5610;52.154;9.198;2023-01-08T11:21:08;99404.44;;;21.17;58.88
11114;BME280;5610;52.154;9.198;2023-01-08T11:24:10;99403.88;;;21.64;55.54
11114;BME280;5610;52.154;9.198;2023-01-08T11:27:03;99406.97;;;21.89;52.15
11114;BME280;5610;52.154;9.198;2023-01-08T11:29:54;99396.38;;;20.07;57.82
11114;BME280;5610;52.154;9.198;2023-01-08T11:32:46;99393.19;;;17.88;63.00
11114;BME280;5610;52.154;9.198;2023-01-08T11:35:35;99389.34;;;17.33;67.54
11114;BME280;5610;52.154;9.198;2023-01-08T11:38:23;99389.34;;;17.41;66.41
11114;BME280;5610;52.154;9.198;2023-01-08T11:41:19;99382.75;;;17.19;68.15
11114;BME280;5610;52.154;9.198;2023-01-08T11:44:20;99381.22;;;17.98;64.18
11114;BME280;5610;52.154;9.198;2023-01-08T11:47:13;99381.59;;;17.38;65.99
11114;BME280;5610;52.154;9.198;2023-01-08T11:50:11;99378.59;;;16.50;67.74
11114;BME280;5610;52.154;9.198;2023-01-08T11:53:11;99372.69;;;15.78;69.96
11114;BME280;5610;52.154;9.198;2023-01-08T11:56:11;99366.91;;;15.03;74.51
11114;BME280;5610;52.154;9.198;2023-01-08T11:59:10;99358.16;;;14.38;76.55
11114;BME280;5610;52.154;9.198;2023-01-08T12:02:01;99361.88;;;14.27;79.54
11114;BME280;5610;52.154;9.198;2023-01-08T12:05:24;99352.06;;;13.91;81.13
11114;BME280;5610;52.154;9.198;2023-01-08T12:08:15;99352.31;;;13.88;81.08
11114;BME280;5610;52.154;9.198;2023-01-08T12:11:13;99346.22;;;14.60;80.01
11114;BME280;5610;52.154;9.198;2023-01-08T12:14:22;99329.06;;;14.53;79.43
11114;BME280;5610;52.154;9.198;2023-01-08T12:17:26;99333.81;;;14.95;78.30
11114;BME280;5610;52.154;9.198;2023-01-08T12:20:23;99332.34;;;14.82;76.90
11114;BME280;5610;52.154;9.198;2023-01-08T12:23:20;99328.38;;;14.41;78.71
11114;BME280;5610;52.154;9.198;2023-01-08T12:26:17;99327.00;;;15.44;73.43
11114;BME280;5610;52.154;9.198;2023-01-08T12:32:23;99315.66;;;16.27;67.90
11114;BME280;5610;52.154;9.198;2023-01-08T12:35:13;99316.00;;;15.81;69.33
11114;BME280;5610;52.154;9.198;2023-01-08T12:38:04;99310.75;;;14.84;72.28
11114;BME280;5610;52.154;9.198;2023-01-08T12:40:55;99318.88;;;14.74;74.28
11114;BME280;5610;52.154;9.198;2023-01-08T12:43:50;99303.19;;;15.49;70.68
11114;BME280;5610;52.154;9.198;2023-01-08T12:46:38;99292.75;;;15.20;70.65
11114;BME280;5610;52.154;9.198;2023-01-08T12:49:31;99294.31;;;19.27;58.96
11114;BME280;5610;52.154;9.198;2023-01-08T12:52:26;99282.00;;;21.00;52.61
11114;BME280;5610;52.154;9.198;2023-01-08T12:55:25;99268.16;;;23.74;47.07
11114;BME280;5610;52.154;9.198;2023-01-08T12:58:29;99286.94;;;18.52;54.46
11114;BME280;5610;52.154;9.198;2023-01-08T13:01:25;99277.63;;;16.64;61.15
11114;BME280;5610;52.154;9.198;2023-01-08T13:04:13;99259.44;;;19.85;54.82
11114;BME280;5610;52.154;9.198;2023-01-08T13:07:01;99256.91;;;23.64;47.14
11114;BME280;5610;52.154;9.198;2023-01-08T13:09:53;99249.53;;;26.11;42.35
11114;BME280;5610;52.154;9.198;2023-01-08T13:12:39;99245.72;;;26.90;40.35
11114;BME280;5610;52.154;9.198;2023-01-08T13:15:27;99234.72;;;28.59;38.29
11114;BME280;5610;52.154;9.198;2023-01-08T13:18:17;99246.59;;;25.32;41.00
11114;BME280;5610;52.154;9.198;2023-01-08T13:21:04;99227.22;;;24.90;41.35
11114;BME280;5610;52.154;9.198;2023-01-08T13:23:58;99222.81;;;23.68;44.05
11114;BME280;5610;52.154;9.198;2023-01-08T13:26:44;99241.84;;;19.74;50.66
11114;BME280;5610;52.154;9.198;2023-01-08T13:29:37;99230.09;;;21.53;48.06
11114;BME280;5610;52.154;9.198;2023-01-08T13:32:39;99220.88;;;21.82;48.27
11114;BME280;5610;52.154;9.198;2023-01-08T13:35:27;99208.47;;;23.08;46.03
11114;BME280;5610;52.154;9.198;2023-01-08T13:38:15;99205.47;;;21.89;47.68
11114;BME280;5610;52.154;9.198;2023-01-08T13:41:01;99202.06;;;23.74;45.25
11114;BME280;5610;52.154;9.198;2023-01-08T13:43:55;99210.00;;;20.63;50.27
11114;BME280;5610;52.154;9.198;2023-01-08T13:46:42;99204.72;;;18.48;55.88
11114;BME280;5610;52.154;9.198;2023-01-08T13:49:34;99207.84;;;16.54;61.58
11114;BME280;5610;52.154;9.198;2023-01-08T13:52:31;99198.63;;;15.74;68.96
11114;BME280;5610;52.154;9.198;2023-01-08T13:55:19;99201.91;;;14.73;77.78
11114;BME280;5610;52.154;9.198;2023-01-08T13:58:08;99203.94;;;13.35;98.63
11114;BME280;5610;52.154;9.198;2023-01-08T14:00:58;99208.25;;;12.99;100.00
11114;BME280;5610;52.154;9.198;2023-01-08T14:03:45;99201.03;;;12.62;100.00
11114;BME280;5610;52.154;9.198;2023-01-08T14:06:31;99201.03;;;12.14;100.00
11114;BME280;5610;52.154;9.198;2023-01-08T14:09:22;99202.41;;;12.18;100.00
11114;BME280;5610;52.154;9.198;2023-01-08T14:12:10;99202.44;;;12.37;100.00
11114;BME280;5610;52.154;9.198;2023-01-08T14:14:57;99189.50;;;12.43;100.00
11114;BME280;5610;52.154;9.198;2023-01-08T14:17:44;99184.13;;;12.52;100.00
11114;BME280;5610;52.154;9.198;2023-01-08T14:20:31;99189.78;;;12.20;100.00
11114;BME280;5610;52.154;9.198;2023-01-08T14:23:20;99192.19;;;12.14;100.00
11114;BME280;5610;52.154;9.198;2023-01-08T14:26:18;99198.06;;;12.07;100.00
11114;BME280;5610;52.154;9.198;2023-01-08T14:29:13;99194.81;;;12.04;100.00
11114;BME280;5610;52.154;9.198;2023-01-08T14:31:59;99187.50;;;11.96;100.00
11114;BME280;5610;52.154;9.198;2023-01-08T14:34:46;99185.13;;;11.93;100.00
11114;BME280;5610;52.154;9.198;2023-01-08T14:37:32;99188.81;;;11.62;100.00
11114;BME280;5610;52.154;9.198;2023-01-08T14:40:27;99187.28;;;11.59;100.00
11114;BME280;5610;52.154;9.198;2023-01-08T14:43:15;99191.91;;;11.57;100.00
11114;BME280;5610;52.154;9.198;2023-01-08T14:46:02;99185.97;;;11.53;100.00
11114;BME280;5610;52.154;9.198;2023-01-08T14:48:48;99177.22;;;11.32;100.00
11114;BME280;5610;52.154;9.198;2023-01-08T14:51:33;99178.38;;;11.09;100.00
11114;BME280;5610;52.154;9.198;2023-01-08T14:54:21;99166.41;;;10.93;100.00
11114;BME280;5610;52.154;9.198;2023-01-08T14:57:10;99168.16;;;10.83;100.00